Time;durP1;ratioP1;P1;durP2;ratioP2;P2;SDS_P1;SDS_P2;PMS_P1;PMS_P2;Temp;Humidity;BMP_temperature;BMP_pressure;BME280_temperature;BME280_humidity;BME280_pressure;Samples;Min_cycle;Max_cycle;Signal;HPM_P1;HPM_P2
2023/03/14 00:00:35;;;;;;;2.65;2.55;;;;;;;8.92;82.74;98938.91;5019678;28;20089;-71
2023/03/14 00:03:01;;;;;;;2.33;2.22;;;;;;;8.88;82.58;98936.06;5013629;28;20095;-72
2023/03/14 00:05:27;;;;;;;2.60;2.50;;;;;;;8.85;82.72;98947.31;5014409;28;20257;-72
2023/03/14 00:07:53;;;;;;;2.83;2.72;;;;;;;8.93;82.39;98951.16;4982584;28;20619;-71
2023/03/14 00:10:19;;;;;;;2.63;2.53;;;;;;;8.97;82.26;98966.28;4972600;28;20096;-71
2023/03/14 00:12:45;;;;;;;2.58;2.47;;;;;;;8.99;82.18;98969.44;4986221;28;20122;-72
2023/03/14 00:15:12;;;;;;;2.70;2.60;;;;;;;9.05;81.93;98977.34;5007205;28;20117;-71
2023/03/14 00:17:38;;;;;;;2.40;2.30;;;;;;;9.06;81.88;98979.69;5004949;28;20082;-71
2023/03/14 00:20:09;;;;;;;2.38;2.28;;;;;;;9.06;81.77;98978.91;5005719;28;20093;-71
2023/03/14 00:22:39;;;;;;;2.28;2.17;;;;;;;8.95;82.35;98957.78;5022248;28;20081;-71
2023/03/14 00:25:07;;;;;;;0.35;0.35;;;;;;;9.01;82.07;98953.91;4998724;28;20112;-71
2023/03/14 00:27:32;;;;;;;2.67;2.58;;;;;;;9.01;81.63;98958.47;4996937;28;20817;-72
2023/03/14 00:29:58;;;;;;;2.40;2.30;;;;;;;8.95;82.19;98957.78;4985667;28;20149;-72
2023/03/14 00:32:24;;;;;;;2.40;2.30;;;;;;;8.96;81.82;98938.00;5003658;28;20143;-72
2023/03/14 00:34:49;;;;;;;2.50;2.40;;;;;;;9.01;81.82;98940.56;4989410;28;20122;-72
2023/03/14 00:37:15;;;;;;;2.47;2.38;;;;;;;8.99;81.79;98940.06;4997986;28;20543;-72
2023/03/14 00:39:41;;;;;;;2.65;2.55;;;;;;;8.94;81.87;98942.06;5020274;28;20100;-71
2023/03/14 00:42:06;;;;;;;2.38;2.28;;;;;;;8.91;82.07;98943.44;4983313;28;20094;-72
2023/03/14 00:44:32;;;;;;;2.38;2.28;;;;;;;8.89;82.24;98924.28;4984933;28;20082;-72
2023/03/14 00:46:58;;;;;;;2.63;2.53;;;;;;;8.85;82.17;98915.28;4986930;28;20130;-73
2023/03/14 00:49:24;;;;;;;2.22;2.13;;;;;;;8.78;82.53;98903.47;5000911;28;20172;-71
2023/03/14 00:51:53;;;;;;;2.95;2.83;;;;;;;8.68;82.75;98907.16;4982399;28;20082;-72
2023/03/14 00:54:21;;;;;;;2.30;2.20;;;;;;;8.56;83.18;98912.22;4997218;28;20093;-71
2023/03/14 00:56:47;;;;;;;2.28;2.17;;;;;;;8.52;83.30;98912.03;4968154;28;20610;-71
2023/03/14 00:59:13;;;;;;;2.38;2.28;;;;;;;8.45;83.72;98906.31;4984615;28;20090;-71
2023/03/14 01:01:40;;;;;;;2.83;2.72;;;;;;;8.47;83.84;98915.63;5021768;28;20090;-71
2023/03/14 01:04:06;;;;;;;2.58;2.47;;;;;;;8.58;83.22;98918.03;5001658;28;20117;-71
2023/03/14 01:06:31;;;;;;;2.30;2.20;;;;;;;8.56;83.30;98918.34;5002288;28;20549;-71
2023/03/14 01:08:57;;;;;;;2.58;2.47;;;;;;;8.57;83.21;98919.16;5012673;28;20094;-72
2023/03/14 01:11:32;;;;;;;2.58;2.47;;;;;;;8.59;83.23;98932.97;5000817;28;20161;-71
2023/03/14 01:13:58;;;;;;;2.40;2.30;;;;;;;8.61;83.02;98942.25;4988209;28;20086;-71
2023/03/14 01:16:30;;;;;;;0.35;0.35;;;;;;;8.67;83.12;98950.94;4998771;28;20101;-72
2023/03/14 01:18:59;;;;;;;2.40;2.30;;;;;;;8.68;82.79;98952.53;5001466;28;20180;-73
2023/03/14 01:21:28;;;;;;;2.63;2.53;;;;;;;8.65;83.05;98935.22;4973973;28;20519;-72
2023/03/14 01:23:56;;;;;;;2.60;2.50;;;;;;;8.75;82.67;98936.91;5003157;28;20147;-72
2023/03/14 01:26:24;;;;;;;2.30;2.20;;;;;;;8.74;82.80;98946.78;4988933;28;20102;-74
2023/03/14 01:28:52;;;;;;;2.50;2.40;;;;;;;8.76;82.95;98933.13;5025240;28;20239;-72
2023/03/14 01:31:18;;;;;;;2.65;2.55;;;;;;;8.84;82.26;98921.72;5006888;28;20171;-71
2023/03/14 01:33:45;;;;;;;2.45;2.35;;;;;;;8.93;82.15;98903.88;5009035;28;20118;-71
2023/03/14 01:36:12;;;;;;;2.65;2.55;;;;;;;8.89;82.30;98900.25;4974146;28;21046;-72
2023/03/14 01:38:39;;;;;;;2.60;2.50;;;;;;;8.89;82.16;98889.59;4991407;28;20135;-72
2023/03/14 01:41:11;;;;;;;2.58;2.47;;;;;;;8.89;81.99;98873.56;4991922;28;20100;-72
2023/03/14 01:43:37;;;;;;;2.60;2.50;;;;;;;8.85;82.07;98861.13;4999608;28;20551;-72
2023/03/14 01:46:05;;;;;;;2.63;2.53;;;;;;;8.84;82.15;98868.34;4989452;28;20102;-71
2023/03/14 01:48:40;;;;;;;0.35;0.35;;;;;;;8.92;81.84;98867.59;4991215;28;20085;-71
2023/03/14 01:51:16;;;;;;;2.38;2.28;;;;;;;8.88;81.83;98864.00;4990045;28;20326;-72
2023/03/14 01:53:43;;;;;;;2.38;2.28;;;;;;;8.91;82.02;98871.38;4987324;28;20093;-74
2023/03/14 01:56:12;;;;;;;2.60;2.50;;;;;;;8.93;81.88;98863.84;5022942;28;20108;-72
2023/03/14 01:58:42;;;;;;;0.17;0.17;;;;;;;8.89;81.74;98864.78;4994881;28;20078;-72
2023/03/14 02:01:09;;;;;;;2.55;2.45;;;;;;;8.94;81.79;98856.63;5007287;28;20543;-73
2023/03/14 02:03:45;;;;;;;2.55;2.45;;;;;;;9.09;80.98;98860.81;5026301;28;20078;-72
2023/03/14 02:06:11;;;;;;;2.63;2.53;;;;;;;9.09;81.04;98866.16;5008974;28;20102;-72
2023/03/14 02:08:39;;;;;;;2.65;2.55;;;;;;;9.01;81.31;98863.13;5006552;28;20550;-72
2023/03/14 02:11:08;;;;;;;2.53;2.42;;;;;;;8.83;81.95;98847.31;4987798;28;20097;-71
2023/03/14 02:13:50;;;;;;;2.38;2.28;;;;;;;8.81;81.94;98844.94;4984057;28;20094;-72
2023/03/14 02:16:35;;;;;;;2.30;2.20;;;;;;;8.87;81.88;98817.00;5004170;28;20093;-71
2023/03/14 02:19:20;;;;;;;0.20;0.20;;;;;;;8.88;81.53;98796.47;4989929;28;20619;-72
2023/03/14 02:22:12;;;;;;;2.38;2.28;;;;;;;8.85;81.43;98792.50;5022615;28;20094;-73
2023/03/14 02:25:06;;;;;;;2.28;2.17;;;;;;;8.87;81.31;98790.31;4991500;28;20098;-72
2023/03/14 02:27:35;;;;;;;2.47;2.38;;;;;;;8.94;80.72;98792.53;4991469;28;20078;-73
2023/03/14 02:30:08;;;;;;;2.60;2.50;;;;;;;8.98;80.62;98806.88;5006546;28;20473;-72
2023/03/14 02:32:37;;;;;;;2.50;2.40;;;;;;;8.95;80.46;98797.59;5007780;28;20097;-76
2023/03/14 02:35:13;;;;;;;2.63;2.53;;;;;;;8.95;80.36;98789.59;5018211;28;20093;-73
2023/03/14 02:37:45;;;;;;;2.50;2.40;;;;;;;8.91;80.46;98791.28;4991748;28;20081;-71
2023/03/14 02:40:12;;;;;;;2.42;2.33;;;;;;;8.98;80.05;98801.53;5005863;28;20131;-73
2023/03/14 02:42:39;;;;;;;2.55;2.45;;;;;;;9.07;79.80;98804.25;4982090;28;20510;-74
2023/03/14 02:45:08;;;;;;;2.63;2.53;;;;;;;9.05;79.89;98793.88;5006881;28;20105;-73
2023/03/14 02:47:37;;;;;;;0.20;0.20;;;;;;;9.10;79.82;98806.31;5007771;28;20078;-71
2023/03/14 02:50:10;;;;;;;2.30;2.20;;;;;;;9.01;80.24;98806.28;4990245;28;20658;-71
2023/03/14 02:52:35;;;;;;;2.30;2.20;;;;;;;8.97;80.45;98810.63;5017807;28;20086;-74
2023/03/14 02:55:01;;;;;;;2.38;2.28;;;;;;;8.92;80.57;98814.22;5008767;28;20497;-73
2023/03/14 02:57:27;;;;;;;2.30;2.20;;;;;;;8.87;80.56;98806.31;4990902;28;20090;-73
2023/03/14 02:59:52;;;;;;;2.28;2.17;;;;;;;8.79;80.84;98804.41;5008129;28;20535;-73
2023/03/14 03:02:19;;;;;;;2.20;2.10;;;;;;;8.73;81.46;98818.94;4988360;28;20527;-73
2023/03/14 03:04:45;;;;;;;2.58;2.47;;;;;;;8.75;81.18;98809.56;5007546;28;20081;-73
2023/03/14 03:07:11;;;;;;;2.28;2.17;;;;;;;8.84;80.68;98806.94;4993199;28;20106;-73
2023/03/14 03:09:36;;;;;;;2.15;2.05;;;;;;;9.01;80.04;98801.72;4989315;28;20144;-72
2023/03/14 03:12:02;;;;;;;2.47;2.38;;;;;;;9.11;79.49;98805.22;5005308;28;20093;-72
2023/03/14 03:14:29;;;;;;;2.65;2.55;;;;;;;9.16;79.17;98813.88;5006430;28;20074;-74
2023/03/14 03:16:58;;;;;;;0.10;0.10;;;;;;;9.20;79.20;98814.03;4993034;28;20102;-73
2023/03/14 03:19:23;;;;;;;2.60;2.50;;;;;;;9.29;78.74;98807.66;4999499;28;20459;-72
2023/03/14 03:21:49;;;;;;;2.55;2.45;;;;;;;9.32;78.49;98795.56;5004278;28;20082;-72
2023/03/14 03:24:15;;;;;;;2.53;2.42;;;;;;;9.38;78.41;98793.56;5004755;28;20170;-73
2023/03/14 03:26:41;;;;;;;2.17;2.08;;;;;;;9.51;77.98;98788.09;5008878;28;20102;-73
2023/03/14 03:29:09;;;;;;;2.53;2.42;;;;;;;9.43;78.43;98791.53;5002624;28;20451;-72
2023/03/14 03:31:37;;;;;;;2.42;2.33;;;;;;;9.44;78.21;98781.63;4996010;28;20136;-73
2023/03/14 03:34:03;;;;;;;2.38;2.28;;;;;;;9.32;78.85;98789.44;5005112;28;20101;-73
2023/03/14 03:36:28;;;;;;;2.45;2.35;;;;;;;9.30;78.89;98785.19;4991108;28;20539;-73
2023/03/14 03:38:54;;;;;;;2.40;2.30;;;;;;;9.48;78.17;98780.72;5010219;28;20100;-71
2023/03/14 03:41:20;;;;;;;2.72;2.63;;;;;;;9.56;77.68;98785.28;5007124;28;20082;-72
2023/03/14 03:43:47;;;;;;;2.55;2.45;;;;;;;9.56;77.81;98779.94;5002093;28;20094;-72
2023/03/14 03:46:15;;;;;;;2.58;2.47;;;;;;;9.59;77.38;98773.19;5007873;28;21319;-72
2023/03/14 03:48:41;;;;;;;2.30;2.20;;;;;;;9.52;77.68;98770.97;4989843;28;20197;-72
2023/03/14 03:51:06;;;;;;;2.30;2.20;;;;;;;9.59;77.22;98767.84;5006612;28;20172;-73
2023/03/14 03:53:33;;;;;;;2.47;2.38;;;;;;;9.39;78.03;98763.84;4976054;28;20090;-72
2023/03/14 03:56:03;;;;;;;2.20;2.10;;;;;;;9.37;78.03;98759.94;5004523;28;20147;-71
2023/03/14 03:58:28;;;;;;;2.17;2.08;;;;;;;9.35;77.98;98762.09;5025960;28;20074;-71
2023/03/14 04:00:55;;;;;;;2.40;2.30;;;;;;;9.23;78.35;98763.50;5008758;28;20703;-71
2023/03/14 04:03:21;;;;;;;2.42;2.33;;;;;;;9.24;78.14;98761.59;4989008;28;20082;-72
2023/03/14 04:05:58;;;;;;;2.58;2.47;;;;;;;9.36;77.70;98756.47;4989857;28;20195;-71
2023/03/14 04:08:24;;;;;;;2.33;2.22;;;;;;;9.36;77.52;98761.81;5003984;28;20110;-71
2023/03/14 04:10:55;;;;;;;2.63;2.53;;;;;;;9.27;77.64;98756.41;5005466;28;20175;-72
2023/03/14 04:13:30;;;;;;;0.20;0.20;;;;;;;9.27;77.76;98755.63;5021496;28;20097;-71
2023/03/14 04:15:56;;;;;;;2.30;2.20;;;;;;;9.24;77.84;98751.72;4991589;28;20098;-72
2023/03/14 04:18:25;;;;;;;2.60;2.50;;;;;;;9.24;77.84;98740.25;4997806;28;20603;-73
2023/03/14 04:20:55;;;;;;;2.53;2.42;;;;;;;9.26;77.66;98740.72;4990587;28;20085;-72
2023/03/14 04:23:25;;;;;;;2.35;2.25;;;;;;;9.24;77.43;98734.91;4988837;28;20078;-72
2023/03/14 04:25:51;;;;;;;2.50;2.40;;;;;;;9.11;77.82;98736.56;4989160;28;20152;-72
2023/03/14 04:28:17;;;;;;;2.40;2.30;;;;;;;9.14;77.49;98735.16;5004489;28;20082;-72
2023/03/14 04:30:44;;;;;;;2.63;2.53;;;;;;;9.13;77.84;98733.59;4988339;28;20147;-71
2023/03/14 04:33:18;;;;;;;2.47;2.38;;;;;;;9.28;77.02;98725.19;5004782;28;20082;-71
2023/03/14 04:35:54;;;;;;;2.22;2.13;;;;;;;9.48;76.07;98721.13;5007995;28;20213;-72
2023/03/14 04:38:20;;;;;;;2.55;2.45;;;;;;;9.43;76.37;98716.72;5012836;28;20086;-71
2023/03/14 04:40:46;;;;;;;2.40;2.30;;;;;;;9.49;76.15;98712.81;4979711;28;20102;-73
2023/03/14 04:43:13;;;;;;;2.28;2.17;;;;;;;9.39;76.44;98713.09;5005008;28;20173;-72
2023/03/14 04:45:46;;;;;;;2.17;2.08;;;;;;;9.45;76.12;98719.09;5022875;28;20148;-69
2023/03/14 04:48:12;;;;;;;2.38;2.28;;;;;;;9.41;76.50;98724.25;4985200;28;20091;-70
2023/03/14 04:50:41;;;;;;;2.17;2.08;;;;;;;9.43;76.28;98713.28;4990187;28;20732;-72
2023/03/14 04:53:09;;;;;;;2.22;2.13;;;;;;;9.55;75.52;98700.06;5002369;28;20086;-71
2023/03/14 04:55:36;;;;;;;2.17;2.08;;;;;;;9.52;75.77;98701.50;4993137;28;20153;-71
2023/03/14 04:58:01;;;;;;;2.40;2.30;;;;;;;9.53;75.42;98700.38;5004792;28;20090;-73
2023/03/14 05:00:27;;;;;;;2.47;2.38;;;;;;;9.47;75.41;98704.31;5021752;28;20097;-72
2023/03/14 05:02:53;;;;;;;2.20;2.10;;;;;;;9.48;75.57;98702.41;5030914;28;20085;-72
2023/03/14 05:05:25;;;;;;;2.28;2.17;;;;;;;9.50;75.11;98693.00;5007677;28;20126;-72
2023/03/14 05:08:13;;;;;;;2.47;2.38;;;;;;;9.55;75.05;98687.53;5004449;28;20100;-71
2023/03/14 05:11:06;;;;;;;2.17;2.08;;;;;;;9.67;74.52;98688.78;4993818;28;20077;-72
2023/03/14 05:13:50;;;;;;;2.55;2.45;;;;;;;9.62;75.22;98688.91;5025435;28;20721;-72
2023/03/14 05:16:28;;;;;;;2.22;2.13;;;;;;;9.44;76.23;98688.91;5005231;28;20381;-72
2023/03/14 05:19:14;;;;;;;2.28;2.17;;;;;;;9.43;76.18;98684.66;4993381;28;20128;-71
2023/03/14 05:22:06;;;;;;;2.45;2.35;;;;;;;9.40;76.37;98679.94;4994349;28;20086;-71
2023/03/14 05:24:51;;;;;;;2.47;2.38;;;;;;;9.38;76.16;98682.13;5022263;28;20313;-70
2023/03/14 05:27:35;;;;;;;2.28;2.17;;;;;;;9.40;76.32;98671.91;5010927;28;20228;-72
2023/03/14 05:30:21;;;;;;;2.17;2.08;;;;;;;9.48;75.95;98681.84;5004707;28;20090;-71
2023/03/14 05:33:06;;;;;;;2.60;2.50;;;;;;;9.43;76.15;98684.66;5007284;28;20176;-70
2023/03/14 05:35:58;;;;;;;2.55;2.45;;;;;;;9.33;76.83;98690.28;5015723;28;20559;-73
2023/03/14 05:38:47;;;;;;;2.28;2.17;;;;;;;9.29;76.91;98686.69;4984806;28;20105;-70
2023/03/14 05:41:36;;;;;;;0.20;0.20;;;;;;;9.40;76.43;98673.81;4995728;28;20185;-73
2023/03/14 05:44:11;;;;;;;2.58;2.47;;;;;;;9.28;77.05;98675.22;5008952;28;20084;-71
2023/03/14 05:46:56;;;;;;;2.20;2.10;;;;;;;9.33;76.78;98678.81;5028948;28;20125;-71
2023/03/14 05:49:41;;;;;;;2.55;2.45;;;;;;;9.20;77.50;98675.16;4996834;28;20090;-73
2023/03/14 05:52:23;;;;;;;2.28;2.17;;;;;;;9.16;77.61;98676.91;4995945;28;20144;-73
2023/03/14 05:55:08;;;;;;;2.55;2.45;;;;;;;9.15;77.61;98680.69;5006208;28;20106;-73
2023/03/14 05:57:55;;;;;;;2.55;2.45;;;;;;;9.17;77.54;98681.94;4992950;28;20109;-72
2023/03/14 06:00:36;;;;;;;2.50;2.40;;;;;;;9.15;77.89;98673.44;5008683;28;20120;-72
2023/03/14 06:03:15;;;;;;;2.15;2.05;;;;;;;9.04;78.49;98664.13;4992287;28;20092;-73
2023/03/14 06:05:49;;;;;;;2.28;2.17;;;;;;;8.94;79.26;98665.22;5003292;28;20172;-72
2023/03/14 06:08:14;;;;;;;2.10;2.00;;;;;;;8.99;78.77;98653.59;4999023;28;20131;-73
2023/03/14 06:10:41;;;;;;;2.55;2.45;;;;;;;8.99;78.68;98659.72;5005491;28;20086;-73
2023/03/14 06:13:07;;;;;;;2.00;1.90;;;;;;;9.06;78.02;98671.84;5005755;28;20116;-73
2023/03/14 06:15:35;;;;;;;2.47;2.38;;;;;;;9.18;76.99;98666.69;5017075;28;20101;-72
2023/03/14 06:18:00;;;;;;;2.35;2.25;;;;;;;9.11;77.55;98677.03;4993393;28;20181;-72
2023/03/14 06:20:26;;;;;;;2.05;1.95;;;;;;;9.10;77.20;98662.13;5007387;28;20082;-72
2023/03/14 06:22:52;;;;;;;1.98;1.88;;;;;;;9.10;77.06;98680.81;4990566;28;20089;-72
2023/03/14 06:25:18;;;;;;;2.53;2.42;;;;;;;9.10;77.31;98680.81;5006515;28;20113;-71
2023/03/14 06:27:46;;;;;;;2.08;1.98;;;;;;;9.19;76.60;98679.72;5001560;28;20085;-73
2023/03/14 06:30:13;;;;;;;2.65;2.55;;;;;;;9.20;76.41;98680.50;5004229;28;20086;-72
2023/03/14 06:32:38;;;;;;;0.52;0.52;;;;;;;9.11;76.82;98693.06;5011584;28;20112;-72
2023/03/14 06:35:08;;;;;;;0.70;0.70;;;;;;;9.05;76.68;98695.06;5010264;28;20077;-72
2023/03/14 06:37:37;;;;;;;2.15;2.05;;;;;;;8.95;76.37;98685.47;5011197;28;20109;-71
2023/03/14 06:40:05;;;;;;;2.17;2.08;;;;;;;8.95;75.42;98688.16;5007680;28;20090;-71
2023/03/14 06:42:53;;;;;;;0.40;0.40;;;;;;;9.00;75.45;98692.53;5000189;28;20227;-72
2023/03/14 06:45:20;;;;;;;0.28;0.28;;;;;;;9.11;75.74;98709.09;5006699;28;20133;-73
2023/03/14 06:47:46;;;;;;;2.63;2.53;;;;;;;9.18;75.34;98718.22;4984983;28;20088;-72
2023/03/14 06:50:13;;;;;;;2.38;2.28;;;;;;;9.21;75.13;98714.94;5011341;28;20086;-73
2023/03/14 06:52:45;;;;;;;2.25;2.15;;;;;;;9.15;74.89;98710.84;5013714;28;20089;-72
2023/03/14 06:55:16;;;;;;;2.28;2.17;;;;;;;9.45;74.46;98719.88;4996125;28;20518;-72
2023/03/14 06:57:43;;;;;;;0.20;0.20;;;;;;;9.85;72.72;98711.75;5002899;28;20092;-72
2023/03/14 07:00:12;;;;;;;2.22;2.13;;;;;;;9.77;72.54;98720.56;4993782;28;20085;-71
2023/03/14 07:02:38;;;;;;;2.60;2.50;;;;;;;9.64;72.73;98716.13;5005835;28;20784;-72
2023/03/14 07:05:06;;;;;;;2.38;2.28;;;;;;;9.47;73.30;98733.69;5007063;28;20101;-72
2023/03/14 07:07:34;;;;;;;2.35;2.25;;;;;;;9.43;73.49;98727.41;5007738;28;20161;-71
2023/03/14 07:10:00;;;;;;;2.20;2.10;;;;;;;9.33;74.16;98738.38;4983800;28;20088;-72
2023/03/14 07:12:27;;;;;;;0.15;0.15;;;;;;;9.26;74.67;98730.03;4992920;28;20164;-72
2023/03/14 07:14:53;;;;;;;2.05;1.95;;;;;;;9.19;75.20;98737.69;4989509;28;20596;-72
2023/03/14 07:17:19;;;;;;;2.28;2.17;;;;;;;9.11;76.03;98735.78;5004654;28;20224;-73
2023/03/14 07:19:45;;;;;;;1.98;1.88;;;;;;;9.10;76.15;98751.03;5005078;28;20527;-72
2023/03/14 07:22:10;;;;;;;2.05;1.95;;;;;;;9.12;75.93;98737.34;4995548;28;20093;-71
2023/03/14 07:24:36;;;;;;;2.28;2.17;;;;;;;9.17;75.95;98738.00;5024647;28;20085;-72
2023/03/14 07:27:04;;;;;;;2.33;2.22;;;;;;;9.31;75.52;98745.91;5010610;28;20119;-73
2023/03/14 07:29:29;;;;;;;2.47;2.38;;;;;;;9.33;75.25;98743.72;5009035;28;20090;-71
2023/03/14 07:31:56;;;;;;;2.67;2.58;;;;;;;9.47;74.25;98744.38;5009281;28;20211;-73
2023/03/14 07:34:22;;;;;;;2.30;2.20;;;;;;;9.68;73.73;98749.94;4990483;28;20082;-73
2023/03/14 07:36:50;;;;;;;2.35;2.25;;;;;;;9.95;72.87;98738.16;5007311;28;20101;-71
2023/03/14 07:39:19;;;;;;;2.17;2.08;;;;;;;9.80;72.62;98752.00;5008654;28;20112;-71
2023/03/14 07:42:00;;;;;;;2.38;2.28;;;;;;;9.94;72.14;98758.00;4996362;28;20089;-72
2023/03/14 07:44:45;;;;;;;2.30;2.20;;;;;;;10.29;70.84;98741.97;5017043;28;20086;-71
2023/03/14 07:47:10;;;;;;;2.55;2.45;;;;;;;10.66;70.05;98745.88;5021479;28;20107;-72
2023/03/14 07:49:36;;;;;;;2.60;2.50;;;;;;;10.85;69.22;98761.59;5004166;28;20078;-71
2023/03/14 07:52:01;;;;;;;2.28;2.17;;;;;;;10.56;69.94;98744.31;5007231;28;20089;-71
2023/03/14 07:54:28;;;;;;;2.58;2.47;;;;;;;10.39;70.14;98752.38;5008200;28;20101;-70
2023/03/14 07:56:55;;;;;;;2.55;2.45;;;;;;;10.21;70.69;98745.41;4994164;28;20121;-71
2023/03/14 07:59:21;;;;;;;2.30;2.20;;;;;;;10.10;71.03;98753.78;4993057;28;20103;-71
2023/03/14 08:01:47;;;;;;;2.40;2.30;;;;;;;9.97;71.77;98746.69;5007746;28;20520;-71
2023/03/14 08:04:12;;;;;;;2.50;2.40;;;;;;;9.86;71.65;98758.78;5011397;28;20117;-71
2023/03/14 08:06:38;;;;;;;2.33;2.22;;;;;;;9.73;71.76;98736.41;4989975;28;20441;-71
2023/03/14 08:09:04;;;;;;;2.00;1.90;;;;;;;9.68;72.39;98760.63;4998682;28;20082;-71
2023/03/14 08:11:30;;;;;;;0.22;0.22;;;;;;;9.77;72.84;98758.78;4995818;28;20093;-71
2023/03/14 08:13:56;;;;;;;2.28;2.17;;;;;;;9.80;72.60;98752.00;5019830;28;20543;-72
2023/03/14 08:16:22;;;;;;;2.58;2.47;;;;;;;10.04;71.77;98754.25;4985539;28;20108;-70
2023/03/14 08:18:48;;;;;;;2.38;2.28;;;;;;;10.31;71.23;98753.16;4994792;28;20523;-71
2023/03/14 08:21:14;;;;;;;2.22;2.13;;;;;;;10.77;70.69;98755.16;4987225;28;20176;-70
2023/03/14 08:23:40;;;;;;;2.50;2.40;;;;;;;10.90;69.61;98739.97;5005740;28;20090;-70
2023/03/14 08:26:06;;;;;;;2.25;2.15;;;;;;;10.73;70.34;98748.84;5005268;28;20137;-71
2023/03/14 08:28:33;;;;;;;2.28;2.17;;;;;;;10.85;70.19;98748.19;5010843;28;20854;-73
2023/03/14 08:30:59;;;;;;;2.35;2.25;;;;;;;10.76;70.24;98745.53;4977077;28;20078;-71
2023/03/14 08:33:29;;;;;;;0.20;0.20;;;;;;;10.29;70.80;98748.13;5003326;28;20554;-71
2023/03/14 08:35:57;;;;;;;2.22;2.13;;;;;;;10.50;71.19;98753.63;5008795;28;20098;-73
2023/03/14 08:38:23;;;;;;;2.55;2.45;;;;;;;10.49;71.34;98746.69;5007911;28;20910;-71
2023/03/14 08:40:49;;;;;;;2.28;2.17;;;;;;;10.60;70.88;98744.47;5009846;28;20531;-72
2023/03/14 08:43:22;;;;;;;2.50;2.40;;;;;;;10.52;70.18;98745.28;4997673;28;20238;-71
2023/03/14 08:45:48;;;;;;;2.47;2.38;;;;;;;10.61;71.10;98744.16;5019370;28;20574;-70
2023/03/14 08:48:14;;;;;;;2.55;2.45;;;;;;;10.61;70.56;98754.06;4992242;28;20548;-71
2023/03/14 08:50:39;;;;;;;2.28;2.17;;;;;;;10.49;70.66;98749.34;5026441;28;20613;-71
2023/03/14 08:53:05;;;;;;;2.50;2.40;;;;;;;10.61;70.63;98738.78;5008474;28;20540;-72
2023/03/14 08:55:31;;;;;;;2.55;2.45;;;;;;;10.61;71.31;98738.78;5009462;28;20093;-73
2023/03/14 08:57:56;;;;;;;2.17;2.08;;;;;;;10.53;70.71;98742.28;4992999;28;20136;-73
2023/03/14 09:00:22;;;;;;;2.28;2.17;;;;;;;10.53;70.54;98736.91;4991414;28;20086;-71
2023/03/14 09:02:48;;;;;;;2.17;2.08;;;;;;;10.62;70.41;98736.91;4993172;28;20154;-71
2023/03/14 09:05:13;;;;;;;0.30;0.30;;;;;;;10.47;70.16;98732.06;5009972;28;20106;-71
2023/03/14 09:07:40;;;;;;;2.25;2.15;;;;;;;10.47;70.73;98738.19;4992908;28;20128;-71
2023/03/14 09:10:07;;;;;;;2.28;2.17;;;;;;;10.57;69.50;98737.88;5009411;28;20112;-71
2023/03/14 09:12:33;;;;;;;2.47;2.38;;;;;;;10.69;70.06;98731.84;5016290;28;20094;-71
2023/03/14 09:14:59;;;;;;;2.50;2.40;;;;;;;10.96;69.58;98733.34;5011101;28;20070;-71
2023/03/14 09:17:27;;;;;;;2.28;2.17;;;;;;;11.73;67.70;98734.88;4990079;28;20428;-71
2023/03/14 09:19:52;;;;;;;0.20;0.20;;;;;;;11.35;68.92;98731.44;5008388;28;20450;-72
2023/03/14 09:22:18;;;;;;;0.28;0.28;;;;;;;11.07;69.90;98728.44;5023680;28;20092;-71
2023/03/14 09:24:44;;;;;;;0.30;0.30;;;;;;;10.65;71.14;98737.06;5024382;28;20623;-73
2023/03/14 09:27:09;;;;;;;;;;;;;;;10.55;72.40;98734.72;5000327;28;20185;-72
2023/03/14 09:29:35;;;;;;;0.00;0.00;;;;;;;10.46;72.71;98741.97;4992910;28;20462;-73
2023/03/14 09:32:00;;;;;;;0.10;0.10;;;;;;;10.20;73.30;98743.84;5028587;28;20140;-72
2023/03/14 09:34:26;;;;;;;1.42;1.42;;;;;;;10.11;74.63;98739.28;5009489;28;20082;-72
2023/03/14 09:36:52;;;;;;;;;;;;;;;10.10;73.85;98740.41;5007752;28;20459;-72
2023/03/14 09:39:18;;;;;;;0.00;0.00;;;;;;;10.38;73.18;98743.56;5009561;28;20474;-71
2023/03/14 09:41:46;;;;;;;;;;;;;;;10.57;73.14;98740.53;5030660;28;20450;-72
2023/03/14 09:44:18;;;;;;;;;;;;;;;10.45;72.47;98750.31;4992956;28;20507;-72
2023/03/14 09:46:47;;;;;;;;;;;;;;;10.36;73.29;98752.97;5008543;28;20518;-72
2023/03/14 09:49:21;;;;;;;;;;;;;;;10.17;76.13;98771.25;5025932;28;19969;-73
2023/03/14 09:51:48;;;;;;;;;;;;;;;9.54;78.87;98781.34;5027197;28;19968;-72
2023/03/14 09:54:23;;;;;;;;;;;;;;;9.23;81.56;98781.41;5033091;28;19974;-71
2023/03/14 09:56:49;;;;;;;;;;;;;;;9.03;82.88;98791.50;5026085;28;19984;-72
2023/03/14 09:59:15;;;;;;;;;;;;;;;8.78;84.50;98807.38;5028371;28;20027;-70
2023/03/14 10:01:40;;;;;;;;;;;;;;;8.63;85.63;98789.88;5010212;28;20307;-72
2023/03/14 10:04:13;;;;;;;;;;;;;;;8.41;85.72;98809.31;4990657;28;20104;-72
2023/03/14 10:06:38;;;;;;;;;;;;;;;8.19;86.27;98812.69;5017613;28;19990;-71
2023/03/14 10:09:05;;;;;;;;;;;;;;;7.94;86.15;98854.81;5007470;28;19972;-71
2023/03/14 10:11:31;;;;;;;;;;;;;;;7.64;84.33;98876.72;5008732;28;19970;-71
2023/03/14 10:14:07;;;;;;;;;;;;;;;7.42;84.70;98888.03;4992300;28;19980;-71
2023/03/14 10:16:34;;;;;;;;;;;;;;;7.30;85.80;98888.50;5026219;28;20548;-73
2023/03/14 10:19:06;;;;;;;0.00;0.00;;;;;;;7.52;85.17;98900.38;4990760;28;20471;-72
2023/03/14 10:21:36;;;;;;;;;;;;;;;7.27;85.20;98909.63;5029096;28;20082;-72
2023/03/14 10:24:28;;;;;;;;;;;;;;;6.97;85.20;98910.88;4994053;28;20419;-71
2023/03/14 10:26:54;;;;;;;;;;;;;;;6.64;84.17;98921.50;5006202;28;20480;-71
2023/03/14 10:29:21;;;;;;;;;;;;;;;6.67;85.80;98928.91;4993408;28;19965;-71
2023/03/14 10:31:50;;;;;;;;;;;;;;;6.70;86.03;98941.59;5035015;28;19972;-71
2023/03/14 10:34:17;;;;;;;;;;;;;;;6.75;86.17;98946.06;4988722;28;20490;-72
2023/03/14 10:36:42;;;;;;;;;;;;;;;6.74;85.84;98966.56;5009148;28;19992;-71
2023/03/14 10:39:26;;;;;;;;;;;;;;;6.63;85.96;98964.31;4991682;28;19965;-72
2023/03/14 10:41:53;;;;;;;;;;;;;;;6.43;86.45;98984.00;5006286;28;19980;-73
2023/03/14 10:44:23;;;;;;;;;;;;;;;6.29;84.93;98992.66;5021403;28;19969;-72
2023/03/14 10:46:58;;;;;;;;;;;;;;;6.05;85.92;99010.47;4993410;28;19996;-72
2023/03/14 10:49:28;;;;;;;;;;;;;;;6.06;83.78;99024.56;5006878;28;19965;-71
2023/03/14 10:51:53;;;;;;;;;;;;;;;5.88;82.93;99040.09;5023405;28;20039;-72
2023/03/14 10:54:20;;;;;;;;;;;;;;;5.41;83.39;99054.03;5008713;28;19962;-71
2023/03/14 10:56:55;;;;;;;;;;;;;;;5.40;85.14;99074.47;5030546;28;19991;-72
2023/03/14 10:59:21;;;;;;;;;;;;;;;5.16;83.74;99081.53;5022115;28;19964;-71
2023/03/14 11:01:52;;;;;;;;;;;;;;;4.87;83.91;99092.00;4989841;28;19973;-71
2023/03/14 11:04:31;;;;;;;;;;;;;;;4.93;81.48;99104.19;5006007;28;20625;-71
2023/03/14 11:06:58;;;;;;;;;;;;;;;4.88;80.89;99114.84;5024291;28;20030;-72
2023/03/14 11:09:41;;;;;;;;;;;;;;;4.60;81.44;99130.28;5001002;28;19980;-72
2023/03/14 11:12:18;;;;;;;;;;;;;;;4.43;82.33;99142.25;4987030;28;20004;-72
2023/03/14 11:14:47;;;;;;;;;;;;;;;4.29;82.44;99155.28;5029118;28;19971;-73
2023/03/14 11:17:28;;;;;;;;;;;;;;;4.03;82.11;99171.16;5024639;28;19981;-71
2023/03/14 11:20:01;;;;;;;;;;;;;;;4.01;83.23;99188.41;5113262;27;19980;-70
2023/03/14 11:22:26;;;;;;;;;;;;;;;4.01;84.44;99194.50;5086482;27;20017;-71
2023/03/14 11:24:52;;;;;;;;;;;;;;;3.93;83.23;99197.66;5108369;27;20343;-70
2023/03/14 11:27:21;;;;;;;;;;;;;;;3.74;81.48;99209.81;5108000;27;19978;-70
2023/03/14 11:29:52;;;;;;;;;;;;;;;3.82;80.97;99212.72;5094779;28;20067;-71
2023/03/14 11:32:37;;;;;;;;;;;;;;;3.77;81.78;99236.53;5106965;27;19981;-71
2023/03/14 11:35:05;;;;;;;;;;;;;;;3.75;82.51;99267.00;5099486;27;19976;-72
2023/03/14 11:37:36;;;;;;;;;;;;;;;3.77;81.94;99256.94;5109909;27;20445;-71
2023/03/14 11:40:09;;;;;;;;;;;;;;;3.87;81.82;99262.28;5095995;28;20387;-68
2023/03/14 11:42:36;;;;;;;0.00;0.00;;;;;;;3.88;81.26;99284.25;5100551;27;20512;-70
2023/03/14 11:45:03;;;;;;;0.47;0.47;;;;;;;3.78;80.57;99290.31;5104104;28;20175;-70
2023/03/14 11:47:37;;;;;;;;;;;;;;;3.83;82.46;99296.41;5106551;27;20609;-72
2023/03/14 11:50:14;;;;;;;0.00;0.00;;;;;;;4.02;83.31;99307.34;5107528;27;20558;-71
2023/03/14 11:52:55;;;;;;;;;;;;;;;4.01;79.54;99315.56;5107304;27;20123;-71
2023/03/14 11:55:40;;;;;;;0.00;0.00;;;;;;;4.12;79.89;99317.16;5096921;27;20504;-71
2023/03/14 11:58:17;;;;;;;;;;;;;;;4.31;79.82;99333.34;5115698;27;20119;-71
2023/03/14 12:00:46;;;;;;;0.00;0.00;;;;;;;4.35;81.32;99323.84;5095182;28;20453;-71
2023/03/14 12:03:12;;;;;;;;;;;;;;;4.53;79.43;99320.66;5081202;27;20080;-71
2023/03/14 12:05:54;;;;;;;0.00;0.00;;;;;;;4.57;77.89;99326.25;5095770;27;20483;-71